Notice: Undefined index: language in /home/u294900127/public_html/vam/index.php on line 31
Aeroboteco

 INFORMAÇÕES METEOROLÓGICAS
METAR FOR UKHH
ADDS - METARS form results

(1631 UTC 22 February 2018)
Data provider http://aviationweather.gov/adds/metars/
 
METAR text: UKHH 221630Z 07004MPS CAVOK M08/M13 Q1024 R07/0///66 NOSIG
Conditions at: UKHH (HAR'KOV/OSNOVA , UA) observed 1630 UTC 22 February 2018
Temperature: -8.0°C (18°F)
Dewpoint: -13.0°C (9°F) [RH = 67%]
Pressure (altimeter): 30.24 inches Hg (1024.0 mb)
Winds: from the ENE (70 degrees) at 9 MPH (8 knots; 4.2 m/s)
Visibility: 6 or more miles (10+ km)
Ceiling: ceiling and visibility are OK
Clouds: unknown
Weather: no significant weather observed at this time

METAR text: UKHH 221600Z 07004MPS CAVOK M08/M13 Q1024 R07/0///66 NOSIG
Conditions at: UKHH (HAR'KOV/OSNOVA , UA) observed 1600 UTC 22 February 2018
Temperature: -8.0°C (18°F)
Dewpoint: -13.0°C (9°F) [RH = 67%]
Pressure (altimeter): 30.24 inches Hg (1024.0 mb)
Winds: from the ENE (70 degrees) at 9 MPH (8 knots; 4.2 m/s)
Visibility: 6 or more miles (10+ km)
Ceiling: ceiling and visibility are OK
Clouds: unknown
Weather: no significant weather observed at this time

Forecast for: UKHH (HAR'KOV/OSNOVA , UA)
Text: TAF UKHH 221410Z 2215/2224 06005MPS 9999 BKN020
Forecast period: 1500 UTC 22 February 2018 to 0000 UTC 23 February 2018
Forecast type: FROM: standard forecast or significant change
Winds: from the ENE (60 degrees) at 12 MPH (10 knots; 5.2 m/s)
Visibility: 6 or more miles (10+ km)
Ceiling: 2000 feet AGL
Clouds: broken clouds at 2000 feet AGL
Weather: no significant weather forecast for this period
Text: TEMPO 2220/2224 2100 BR BKN007
Forecast period: 2000 UTC 22 February 2018 to 0000 UTC 23 February 2018
Forecast type: TEMPORARY: The following changes expected for less than half the time period
Visibility: 1.30 miles (2.09 km)
Ceiling: 700 feet AGL
Clouds: broken clouds at 700 feet AGL
Weather: BR  (mist)

 MAPA DO AEROPORTO

 INFORMAÇÕES DA PISTA
Pista 08 Tamanho da pista 7285 ft Largura da pista 165 ft
Elevação da pista 494 ft Ranhura da pista 0 ft Proa da pista 90
Pista 26 Tamanho da pista 7285 ft Largura da pista 165 ft
Elevação da pista 485 ft Ranhura da pista 0 ft Proa da pista 270

 FREQUÊNCIAS DO AEROPORTO
Tipo APP Nome KHARKIV RA Frequência 118.1 MHZ
Tipo GND Nome KHARKIV GN Frequência 119 MHZ
Tipo PMSV Nome KHARKIV ME Frequência 127.6 MHZ
Tipo TWR Nome KHARKIV TW Frequência 118.1 MHZ

 AUXÍLIOS DE NAVEGAÇÃO PRÓXIMOS AO AEROPORTO
Tipo NDB Nome Kharkiv Frequência 678 KHZ
Tipo NDB Nome Kharkiv Frequência 330 KHZ
Tipo NDB Nome Kharkiv Frequência 330 KHZ
Tipo VOR-DME Nome Kharkiv Frequência 116500 KHZ
Tipo NDB Nome Kharkiv Frequência 678 KHZ



Powered by Virtual Airlines Manager [v2.6.2]